Ana Sayfa
METAR-TAF:

METAR-TAF

Havaalanları :

Community_Airport

Owosso, Michigan, Amerika Birleşik Devletleri

Enlem: 42-59-34N, Boylam: 084-08-20W, yükseklik: 224 m

Güncel hava durumu gözlemi

Rapor saat 06:36 UTC de 22 dakika önce yapıldı.
Rüzgar batı/güneybatıdan 15 kt ve 19 kt'a kadar ani rüzgarlar
Sıcaklık 6°C
Nem 75%
Basınç 1008 hPa
Görüş mesafesi: 16.1 km
1900 ft yükseklikte çok bulutlu

METAR: KRNP 300636Z AUTO 25015G19KT 10SM OVC019 06/02 A2977 RMK AO2 T00550017

Saat: 02:58 (06:58 UTC)


TAF: eksik

4.000'den fazla havaalanı için hava durumu gözlemleri ve tahminleri (METAR ve TAF raporları).

Kullanılabilir istasyonlar harita üzerinde sarı ve kırmızı noktalarla gösterilir.

İstasyonun adını görmek için fareyi noktanın üzerinde gezdirin.

Sonrasında hava gözlem ve tahminlerini görmek için tıklayın.

Haritayı değiştirmek için: yaklaştırmak için siyah artı işaretli yeşil düğmeye ve uzaklaştırmak için de eksi işaretli düğmeye hızla tıklayın; bitişik haritalar için yeşil okları kullanın.


METAR-TAF: